Terminal Aerodrome Forecast
Issued by NWS Shreveport, LA

Home | Current Version | Previous Version | Text Only | Print | Product List | Glossary On
Versions: 1 2 3 4 5 6 7 8 9 10 11 12 13 14 15 16 17 18 19 20 21 22 23 24 25 26
000
FTUS44 KSHV 210109 AAA
TAFMLU
TAF AMD
KMLU 210109Z 2101/2124 33020G30KT P6SM VCSH OVC080
     FM210200 32012KT P6SM BKN080
     FM210500 VRB04KT P6SM SKC
     FM211600 30010KT P6SM SKC=

USA.gov is the U.S. government's official web portal to all federal, state and local government web resources and services.